MST,Max TemperatureF,Mean TemperatureF,Min TemperatureF,Max Dew PointF,MeanDew PointF,Min DewpointF,Max Humidity, Mean Humidity, Min Humidity, Max Sea Level PressureIn, Mean Sea Level PressureIn, Min Sea Level PressureIn, Max VisibilityMiles, Mean VisibilityMiles, Min VisibilityMiles, Max Wind SpeedMPH, Mean Wind SpeedMPH, Max Gust SpeedMPH,PrecipitationIn, CloudCover, Events, WindDirDegrees
2012-12-1,54,41,27,34,28,26,92,67,41,29.92,29.85,29.75,10,10,9,17,6,21,0.00,1,,159
2012-12-2,60,49,38,33,29,27,60,45,30,29.79,29.56,29.41,10,10,10,33,18,41,0.00,1,,166
2012-12-3,48,36,23,30,19,13,74,50,25,30.26,30.03,29.68,10,10,10,22,4,29,0.00,1,,173
2012-12-4,43,32,20,24,20,16,84,65,45,30.31,30.20,30.06,10,10,8,10,2,12,0.00,0,,221
2012-12-5,52,39,25,31,26,21,85,66,46,30.01,29.92,29.80,10,10,10,13,4,14,0.00,1,,191
2012-12-6,44,35,25,28,22,20,88,65,41,30.06,29.94,29.84,10,10,5,16,4,18,T,4,Snow,323
2012-12-7,36,27,18,28,25,16,100,75,49,30.04,29.91,29.76,10,7,1,17,7,20,0.02,5,Snow,242
2012-12-8,32,23,13,25,18,6,92,75,58,30.27,29.86,29.69,10,8,0,31,9,39,0.01,6,Fog-Snow,333
2012-12-9,20,12,3,10,5,-1,88,72,56,30.51,30.33,30.15,10,10,10,14,5,17,0.00,2,,121
2012-12-10,21,14,6,18,12,4,92,83,73,30.16,30.07,29.92,10,7,0,8,2,9,0.01,6,Fog-Snow,210
2012-12-11,29,17,5,19,13,3,100,84,68,30.12,29.92,29.74,10,10,10,10,2,10,0.00,1,,208
2012-12-12,49,31,12,24,19,11,92,63,34,29.94,29.74,29.58,10,10,10,26,8,32,0.00,0,,199
2012-12-13,44,29,13,26,19,11,92,71,49,30.03,29.96,29.88,10,10,10,10,2,10,0.00,0,,211
2012-12-14,40,27,14,25,20,13,92,70,48,29.88,29.76,29.62,10,10,10,8,2,9,0.00,2,,170
2012-12-15,35,29,23,28,25,21,92,82,72,29.86,29.78,29.64,10,8,2,9,2,9,T,7,Snow,169
2012-12-16,37,27,16,25,20,14,100,70,40,29.86,29.71,29.60,10,7,0,14,2,17,T,4,Fog,81
2012-12-17,41,26,11,28,17,10,92,67,41,29.73,29.59,29.43,10,10,10,20,6,26,0.01,2,Snow,251
2012-12-18,35,22,9,18,5,-8,84,51,17,29.95,29.83,29.68,10,10,10,21,5,32,0.00,0,,324
2012-12-19,27,14,1,3,-1,-4,79,54,29,30.36,30.19,29.97,10,10,10,10,3,12,0.00,0,,177
2012-12-20,28,13,-2,6,1,-6,79,59,38,30.43,30.34,30.26,10,10,9,9,2,10,0.00,0,,205
2012-12-21,47,27,7,10,6,2,73,45,17,30.27,30.16,30.03,10,10,10,5,4,5,0.00,0,,136
2012-12-22,48,28,7,13,6,2,80,48,15,30.20,30.02,29.86,10,10,10,22,5,26,0.00,0,,155
2012-12-23,42,26,10,13,9,6,76,50,24,30.04,29.96,29.81,10,10,10,14,6,18,0.00,1,,103
2012-12-24,23,15,7,11,6,-1,83,73,62,30.40,30.07,29.84,10,8,2,20,7,24,T,4,Snow,349
2012-12-25,14,4,-7,5,1,-10,91,78,64,30.50,30.30,30.18,10,4,1,9,2,12,0.03,5,Snow,67
2012-12-26,18,10,2,16,10,1,92,83,73,30.13,29.86,29.65,10,4,1,8,2,13,0.12,7,Snow,182
2012-12-27,21,9,-4,16,10,-7,96,87,77,30.18,29.93,29.71,10,5,1,6,0,6,0.06,7,Snow,156
2012-12-28,19,4,-11,9,0,-15,95,81,67,30.39,30.26,30.14,10,10,10,10,2,10,0.00,3,,197
2012-12-29,12,0,-12,5,-5,-15,91,82,73,30.45,30.32,30.21,10,10,10,10,2,10,T,0,Snow,194
2012-12-30,15,2,-11,4,-5,-13,92,78,64,30.38,30.30,30.19,10,10,10,9,2,,0.00,0,,177
2012-12-31,11,-3,-17,3,-7,-21,87,75,63,30.43,30.35,30.28,10,10,6,13,1,,T,2,Snow,182